sensor_id;sensor_type;location;lat;lon;timestamp;pressure;altitude;pressure_sealevel;temperature;humidity
11114;BME280;5610;52.154;9.198;2023-07-13T00:00:22;100477.22;;;20.16;100.00
11114;BME280;5610;52.154;9.198;2023-07-13T00:03:08;100474.34;;;20.18;100.00
11114;BME280;5610;52.154;9.198;2023-07-13T00:05:57;100479.19;;;20.14;100.00
11114;BME280;5610;52.154;9.198;2023-07-13T00:08:43;100482.91;;;20.13;100.00
11114;BME280;5610;52.154;9.198;2023-07-13T00:11:30;100489.28;;;20.04;100.00
11114;BME280;5610;52.154;9.198;2023-07-13T00:14:16;100493.47;;;19.98;100.00
11114;BME280;5610;52.154;9.198;2023-07-13T00:17:01;100498.16;;;19.88;100.00
11114;BME280;5610;52.154;9.198;2023-07-13T00:19:47;100491.44;;;19.57;100.00
11114;BME280;5610;52.154;9.198;2023-07-13T00:22:32;100495.47;;;19.70;100.00
11114;BME280;5610;52.154;9.198;2023-07-13T00:25:17;100494.09;;;19.66;100.00
11114;BME280;5610;52.154;9.198;2023-07-13T00:28:04;100496.09;;;19.46;100.00
11114;BME280;5610;52.154;9.198;2023-07-13T00:30:49;100492.59;;;19.36;100.00
11114;BME280;5610;52.154;9.198;2023-07-13T00:33:34;100488.03;;;19.37;100.00
11114;BME280;5610;52.154;9.198;2023-07-13T00:36:20;100489.66;;;19.30;100.00
11114;BME280;5610;52.154;9.198;2023-07-13T00:39:05;100498.06;;;19.09;100.00
11114;BME280;5610;52.154;9.198;2023-07-13T00:41:51;100489.34;;;18.97;100.00
11114;BME280;5610;52.154;9.198;2023-07-13T00:44:38;100495.75;;;18.96;100.00
11114;BME280;5610;52.154;9.198;2023-07-13T00:47:24;100499.16;;;18.71;100.00
11114;BME280;5610;52.154;9.198;2023-07-13T00:50:12;100503.91;;;18.86;100.00
11114;BME280;5610;52.154;9.198;2023-07-13T00:52:59;100496.75;;;18.67;100.00
11114;BME280;5610;52.154;9.198;2023-07-13T00:55:45;100495.41;;;18.54;100.00
11114;BME280;5610;52.154;9.198;2023-07-13T00:58:31;100489.31;;;18.79;100.00
11114;BME280;5610;52.154;9.198;2023-07-13T01:01:18;100498.22;;;18.89;100.00
11114;BME280;5610;52.154;9.198;2023-07-13T01:04:03;100503.47;;;19.09;100.00
11114;BME280;5610;52.154;9.198;2023-07-13T01:06:52;100496.16;;;19.19;100.00
11114;BME280;5610;52.154;9.198;2023-07-13T01:09:39;100497.09;;;19.28;100.00
11114;BME280;5610;52.154;9.198;2023-07-13T01:12:24;100499.19;;;19.34;100.00
11114;BME280;5610;52.154;9.198;2023-07-13T01:15:34;100497.94;;;19.28;100.00
11114;BME280;5610;52.154;9.198;2023-07-13T01:18:23;100497.41;;;19.25;100.00
11114;BME280;5610;52.154;9.198;2023-07-13T01:21:09;100490.94;;;19.17;100.00
11114;BME280;5610;52.154;9.198;2023-07-13T01:23:58;100494.06;;;19.13;100.00
11114;BME280;5610;52.154;9.198;2023-07-13T01:26:43;100496.69;;;19.05;100.00
11114;BME280;5610;52.154;9.198;2023-07-13T01:29:29;100490.38;;;18.96;100.00
11114;BME280;5610;52.154;9.198;2023-07-13T01:32:16;100494.69;;;18.89;100.00
11114;BME280;5610;52.154;9.198;2023-07-13T01:35:06;100505.91;;;18.84;100.00
11114;BME280;5610;52.154;9.198;2023-07-13T01:37:53;100497.72;;;18.76;100.00
11114;BME280;5610;52.154;9.198;2023-07-13T01:40:38;100502.72;;;18.71;100.00
11114;BME280;5610;52.154;9.198;2023-07-13T01:43:24;100494.22;;;18.66;100.00
11114;BME280;5610;52.154;9.198;2023-07-13T01:46:09;100493.06;;;18.59;100.00
11114;BME280;5610;52.154;9.198;2023-07-13T01:48:54;100493.47;;;18.36;100.00
11114;BME280;5610;52.154;9.198;2023-07-13T01:51:40;100492.38;;;18.29;100.00
11114;BME280;5610;52.154;9.198;2023-07-13T01:54:26;100499.13;;;18.06;100.00
11114;BME280;5610;52.154;9.198;2023-07-13T01:57:12;100497.53;;;18.13;100.00
11114;BME280;5610;52.154;9.198;2023-07-13T01:59:57;100502.56;;;17.98;100.00
11114;BME280;5610;52.154;9.198;2023-07-13T02:02:42;100512.03;;;18.12;100.00
11114;BME280;5610;52.154;9.198;2023-07-13T02:05:28;100519.13;;;18.03;100.00
11114;BME280;5610;52.154;9.198;2023-07-13T02:08:14;100526.97;;;17.87;100.00
11114;BME280;5610;52.154;9.198;2023-07-13T02:11:02;100516.16;;;18.06;100.00
11114;BME280;5610;52.154;9.198;2023-07-13T02:13:48;100518.56;;;18.00;100.00
11114;BME280;5610;52.154;9.198;2023-07-13T02:16:34;100520.03;;;17.84;100.00
11114;BME280;5610;52.154;9.198;2023-07-13T02:19:19;100512.66;;;17.77;100.00
11114;BME280;5610;52.154;9.198;2023-07-13T02:22:04;100514.59;;;17.94;100.00
11114;BME280;5610;52.154;9.198;2023-07-13T02:24:50;100510.03;;;18.14;100.00
11114;BME280;5610;52.154;9.198;2023-07-13T02:27:37;100502.31;;;18.29;100.00
11114;BME280;5610;52.154;9.198;2023-07-13T02:30:22;100509.53;;;18.28;100.00
11114;BME280;5610;52.154;9.198;2023-07-13T02:33:11;100510.34;;;18.38;100.00
11114;BME280;5610;52.154;9.198;2023-07-13T02:35:57;100517.53;;;18.57;100.00
11114;BME280;5610;52.154;9.198;2023-07-13T02:38:42;100520.44;;;18.74;100.00
11114;BME280;5610;52.154;9.198;2023-07-13T02:41:27;100515.41;;;18.88;100.00
11114;BME280;5610;52.154;9.198;2023-07-13T02:44:14;100511.72;;;18.89;100.00
11114;BME280;5610;52.154;9.198;2023-07-13T02:46:59;100514.00;;;18.84;100.00
11114;BME280;5610;52.154;9.198;2023-07-13T02:49:44;100516.19;;;18.99;100.00
11114;BME280;5610;52.154;9.198;2023-07-13T02:52:29;100508.88;;;19.09;100.00
11114;BME280;5610;52.154;9.198;2023-07-13T02:55:15;100513.06;;;19.21;100.00
11114;BME280;5610;52.154;9.198;2023-07-13T02:58:00;100510.16;;;19.32;100.00
11114;BME280;5610;52.154;9.198;2023-07-13T03:00:48;100514.78;;;19.40;100.00
11114;BME280;5610;52.154;9.198;2023-07-13T03:03:34;100515.84;;;19.47;100.00
11114;BME280;5610;52.154;9.198;2023-07-13T03:06:19;100521.78;;;19.51;100.00
11114;BME280;5610;52.154;9.198;2023-07-13T03:09:08;100525.59;;;19.58;100.00
11114;BME280;5610;52.154;9.198;2023-07-13T03:11:56;100523.59;;;19.60;100.00
11114;BME280;5610;52.154;9.198;2023-07-13T03:14:46;100518.34;;;19.58;100.00
11114;BME280;5610;52.154;9.198;2023-07-13T03:17:33;100515.13;;;19.45;100.00
11114;BME280;5610;52.154;9.198;2023-07-13T03:20:19;100514.38;;;19.35;100.00
11114;BME280;5610;52.154;9.198;2023-07-13T03:23:04;100506.28;;;19.35;100.00
11114;BME280;5610;52.154;9.198;2023-07-13T03:25:49;100504.13;;;19.38;100.00
11114;BME280;5610;52.154;9.198;2023-07-13T03:28:35;100502.28;;;19.39;100.00
11114;BME280;5610;52.154;9.198;2023-07-13T03:31:27;100499.78;;;19.28;100.00
11114;BME280;5610;52.154;9.198;2023-07-13T03:34:14;100498.72;;;19.20;100.00
11114;BME280;5610;52.154;9.198;2023-07-13T03:37:00;100496.41;;;19.26;100.00
11114;BME280;5610;52.154;9.198;2023-07-13T03:39:45;100510.28;;;19.31;100.00
11114;BME280;5610;52.154;9.198;2023-07-13T03:42:31;100515.13;;;19.09;100.00
11114;BME280;5610;52.154;9.198;2023-07-13T03:45:16;100514.91;;;19.20;100.00
11114;BME280;5610;52.154;9.198;2023-07-13T03:48:02;100514.75;;;19.22;100.00
11114;BME280;5610;52.154;9.198;2023-07-13T03:50:48;100515.06;;;19.19;100.00
11114;BME280;5610;52.154;9.198;2023-07-13T03:53:37;100516.59;;;19.21;100.00
11114;BME280;5610;52.154;9.198;2023-07-13T03:56:23;100518.19;;;19.24;100.00
11114;BME280;5610;52.154;9.198;2023-07-13T03:59:08;100516.84;;;19.28;100.00
11114;BME280;5610;52.154;9.198;2023-07-13T04:01:53;100514.16;;;19.28;100.00
11114;BME280;5610;52.154;9.198;2023-07-13T04:04:39;100525.28;;;19.25;100.00
11114;BME280;5610;52.154;9.198;2023-07-13T04:07:26;100529.81;;;19.25;100.00
11114;BME280;5610;52.154;9.198;2023-07-13T04:10:11;100535.91;;;19.27;100.00
11114;BME280;5610;52.154;9.198;2023-07-13T04:12:57;100538.78;;;19.25;100.00
11114;BME280;5610;52.154;9.198;2023-07-13T04:15:42;100538.59;;;19.09;100.00
11114;BME280;5610;52.154;9.198;2023-07-13T04:18:27;100551.25;;;19.08;100.00
11114;BME280;5610;52.154;9.198;2023-07-13T04:21:13;100537.03;;;19.06;100.00
11114;BME280;5610;52.154;9.198;2023-07-13T04:24:00;100549.97;;;19.03;100.00
11114;BME280;5610;52.154;9.198;2023-07-13T04:26:46;100550.13;;;19.01;100.00
11114;BME280;5610;52.154;9.198;2023-07-13T04:29:32;100546.75;;;18.99;100.00
11114;BME280;5610;52.154;9.198;2023-07-13T04:32:17;100551.47;;;18.97;100.00
11114;BME280;5610;52.154;9.198;2023-07-13T04:35:02;100554.59;;;18.92;100.00
11114;BME280;5610;52.154;9.198;2023-07-13T04:37:48;100553.34;;;18.87;100.00
11114;BME280;5610;52.154;9.198;2023-07-13T04:40:35;100548.94;;;18.86;100.00
11114;BME280;5610;52.154;9.198;2023-07-13T04:43:21;100553.66;;;18.84;100.00
11114;BME280;5610;52.154;9.198;2023-07-13T04:46:07;100552.09;;;18.81;100.00
11114;BME280;5610;52.154;9.198;2023-07-13T04:48:53;100560.19;;;18.81;100.00
11114;BME280;5610;52.154;9.198;2023-07-13T04:51:39;100552.81;;;18.83;100.00
11114;BME280;5610;52.154;9.198;2023-07-13T04:54:24;100558.06;;;18.85;100.00
11114;BME280;5610;52.154;9.198;2023-07-13T04:57:11;100557.22;;;18.84;100.00
11114;BME280;5610;52.154;9.198;2023-07-13T04:59:56;100552.50;;;18.86;100.00
11114;BME280;5610;52.154;9.198;2023-07-13T05:02:44;100549.69;;;18.78;100.00
11114;BME280;5610;52.154;9.198;2023-07-13T05:05:29;100558.97;;;18.66;100.00
11114;BME280;5610;52.154;9.198;2023-07-13T05:08:14;100557.28;;;18.75;100.00
11114;BME280;5610;52.154;9.198;2023-07-13T05:11:00;100555.75;;;18.90;100.00
11114;BME280;5610;52.154;9.198;2023-07-13T05:13:47;100567.78;;;18.96;100.00
11114;BME280;5610;52.154;9.198;2023-07-13T05:16:32;100567.06;;;19.03;100.00
11114;BME280;5610;52.154;9.198;2023-07-13T05:19:17;100571.41;;;19.14;100.00
11114;BME280;5610;52.154;9.198;2023-07-13T05:22:02;100570.09;;;19.18;100.00
11114;BME280;5610;52.154;9.198;2023-07-13T05:24:47;100578.44;;;19.25;100.00
11114;BME280;5610;52.154;9.198;2023-07-13T05:27:33;100572.69;;;19.10;100.00
11114;BME280;5610;52.154;9.198;2023-07-13T05:30:20;100571.47;;;19.22;100.00
11114;BME280;5610;52.154;9.198;2023-07-13T05:33:05;100579.06;;;19.18;100.00
11114;BME280;5610;52.154;9.198;2023-07-13T05:35:51;100577.72;;;19.23;100.00
11114;BME280;5610;52.154;9.198;2023-07-13T05:38:36;100581.69;;;19.28;100.00
11114;BME280;5610;52.154;9.198;2023-07-13T05:41:21;100577.28;;;19.27;100.00
11114;BME280;5610;52.154;9.198;2023-07-13T05:44:06;100575.88;;;19.23;100.00
11114;BME280;5610;52.154;9.198;2023-07-13T05:46:53;100586.81;;;19.31;100.00
11114;BME280;5610;52.154;9.198;2023-07-13T05:49:40;100576.00;;;19.31;100.00
11114;BME280;5610;52.154;9.198;2023-07-13T05:52:25;100593.34;;;19.29;100.00
11114;BME280;5610;52.154;9.198;2023-07-13T05:55:10;100589.59;;;19.39;100.00
11114;BME280;5610;52.154;9.198;2023-07-13T05:57:56;100586.03;;;19.39;100.00
11114;BME280;5610;52.154;9.198;2023-07-13T06:00:42;100590.34;;;19.49;100.00
11114;BME280;5610;52.154;9.198;2023-07-13T06:03:30;100599.53;;;19.57;100.00
11114;BME280;5610;52.154;9.198;2023-07-13T06:06:16;100595.16;;;19.56;100.00
11114;BME280;5610;52.154;9.198;2023-07-13T06:09:01;100598.91;;;19.45;100.00
11114;BME280;5610;52.154;9.198;2023-07-13T06:11:46;100598.19;;;19.53;100.00
11114;BME280;5610;52.154;9.198;2023-07-13T06:14:31;100598.81;;;19.64;100.00
11114;BME280;5610;52.154;9.198;2023-07-13T06:17:17;100603.94;;;19.67;100.00
11114;BME280;5610;52.154;9.198;2023-07-13T06:20:04;100605.06;;;19.65;100.00
11114;BME280;5610;52.154;9.198;2023-07-13T06:22:49;100605.06;;;19.83;100.00
11114;BME280;5610;52.154;9.198;2023-07-13T06:25:34;100605.00;;;19.74;100.00
11114;BME280;5610;52.154;9.198;2023-07-13T06:28:19;100607.63;;;19.66;100.00
11114;BME280;5610;52.154;9.198;2023-07-13T06:31:05;100607.97;;;19.54;100.00
11114;BME280;5610;52.154;9.198;2023-07-13T06:33:51;100609.47;;;19.66;100.00
11114;BME280;5610;52.154;9.198;2023-07-13T06:36:38;100622.75;;;19.77;100.00
11114;BME280;5610;52.154;9.198;2023-07-13T06:39:23;100622.16;;;19.83;100.00
11114;BME280;5610;52.154;9.198;2023-07-13T06:42:08;100613.50;;;19.97;100.00
11114;BME280;5610;52.154;9.198;2023-07-13T06:44:53;100625.00;;;19.99;100.00
11114;BME280;5610;52.154;9.198;2023-07-13T06:47:38;100621.88;;;20.12;100.00
11114;BME280;5610;52.154;9.198;2023-07-13T06:50:23;100621.50;;;20.07;100.00
11114;BME280;5610;52.154;9.198;2023-07-13T06:53:11;100625.22;;;20.06;100.00
11114;BME280;5610;52.154;9.198;2023-07-13T06:55:56;100630.06;;;20.20;100.00
11114;BME280;5610;52.154;9.198;2023-07-13T06:58:42;100622.69;;;20.48;100.00
11114;BME280;5610;52.154;9.198;2023-07-13T07:01:27;100631.13;;;20.71;100.00
11114;BME280;5610;52.154;9.198;2023-07-13T07:04:12;100626.88;;;20.95;100.00
11114;BME280;5610;52.154;9.198;2023-07-13T07:06:58;100630.66;;;21.10;96.43
11114;BME280;5610;52.154;9.198;2023-07-13T07:09:44;100639.94;;;21.42;93.36
11114;BME280;5610;52.154;9.198;2023-07-13T07:12:30;100640.31;;;21.55;91.34
11114;BME280;5610;52.154;9.198;2023-07-13T07:15:15;100634.09;;;21.71;93.90
11114;BME280;5610;52.154;9.198;2023-07-13T07:18:01;100633.41;;;21.77;91.67
11114;BME280;5610;52.154;9.198;2023-07-13T07:20:46;100634.97;;;21.87;86.03
11114;BME280;5610;52.154;9.198;2023-07-13T07:23:31;100645.16;;;21.93;89.10
11114;BME280;5610;52.154;9.198;2023-07-13T07:26:18;100646.84;;;22.03;87.44
11114;BME280;5610;52.154;9.198;2023-07-13T07:29:03;100651.16;;;21.55;85.61
11114;BME280;5610;52.154;9.198;2023-07-13T07:31:49;100647.31;;;21.57;86.97
11114;BME280;5610;52.154;9.198;2023-07-13T07:34:34;100641.38;;;21.70;86.06
11114;BME280;5610;52.154;9.198;2023-07-13T07:37:19;100628.69;;;21.79;88.13
11114;BME280;5610;52.154;9.198;2023-07-13T07:40:06;100633.94;;;21.88;88.38
11114;BME280;5610;52.154;9.198;2023-07-13T07:42:53;100632.38;;;21.70;86.87
11114;BME280;5610;52.154;9.198;2023-07-13T07:45:39;100631.59;;;21.85;86.34
11114;BME280;5610;52.154;9.198;2023-07-13T07:48:24;100631.38;;;21.71;88.14
11114;BME280;5610;52.154;9.198;2023-07-13T07:51:10;100627.13;;;21.68;89.04
11114;BME280;5610;52.154;9.198;2023-07-13T07:53:55;100621.91;;;21.83;90.37
11114;BME280;5610;52.154;9.198;2023-07-13T07:56:40;100638.16;;;21.66;89.05
11114;BME280;5610;52.154;9.198;2023-07-13T07:59:26;100628.91;;;22.10;90.25
11114;BME280;5610;52.154;9.198;2023-07-13T08:02:12;100639.75;;;22.42;90.67
11114;BME280;5610;52.154;9.198;2023-07-13T08:04:57;100631.41;;;22.60;86.08
11114;BME280;5610;52.154;9.198;2023-07-13T08:07:42;100641.72;;;22.81;86.02
11114;BME280;5610;52.154;9.198;2023-07-13T08:10:27;100641.25;;;22.86;83.47
11114;BME280;5610;52.154;9.198;2023-07-13T08:13:13;100644.09;;;22.84;81.67
11114;BME280;5610;52.154;9.198;2023-07-13T08:15:59;100645.94;;;23.00;82.54
11114;BME280;5610;52.154;9.198;2023-07-13T08:18:45;100652.72;;;23.04;83.87
11114;BME280;5610;52.154;9.198;2023-07-13T08:21:30;100635.50;;;23.20;83.65
11114;BME280;5610;52.154;9.198;2023-07-13T08:24:15;100651.00;;;23.11;84.13
11114;BME280;5610;52.154;9.198;2023-07-13T08:27:02;100643.97;;;23.25;81.22
11114;BME280;5610;52.154;9.198;2023-07-13T08:29:48;100655.66;;;22.86;80.81
11114;BME280;5610;52.154;9.198;2023-07-13T08:32:36;100657.16;;;23.05;81.04
11114;BME280;5610;52.154;9.198;2023-07-13T08:35:21;100659.03;;;23.05;79.77
11114;BME280;5610;52.154;9.198;2023-07-13T08:38:06;100650.75;;;23.29;80.67
11114;BME280;5610;52.154;9.198;2023-07-13T08:40:53;100648.00;;;23.37;78.53
11114;BME280;5610;52.154;9.198;2023-07-13T08:43:41;100648.22;;;23.27;79.16
11114;BME280;5610;52.154;9.198;2023-07-13T08:46:32;100653.56;;;23.44;82.38
11114;BME280;5610;52.154;9.198;2023-07-13T08:49:22;100653.25;;;23.39;77.79
11114;BME280;5610;52.154;9.198;2023-07-13T08:52:12;100657.66;;;23.79;77.71
11114;BME280;5610;52.154;9.198;2023-07-13T08:55:04;100648.44;;;24.34;74.53
11114;BME280;5610;52.154;9.198;2023-07-13T08:57:56;100656.47;;;24.65;70.17
11114;BME280;5610;52.154;9.198;2023-07-13T09:00:50;100656.31;;;24.81;69.96
11114;BME280;5610;52.154;9.198;2023-07-13T09:03:41;100657.22;;;24.74;69.35
11114;BME280;5610;52.154;9.198;2023-07-13T09:06:34;100674.75;;;24.42;71.76
11114;BME280;5610;52.154;9.198;2023-07-13T09:09:26;100659.63;;;24.31;70.06
11114;BME280;5610;52.154;9.198;2023-07-13T09:12:17;100676.44;;;23.97;68.29
11114;BME280;5610;52.154;9.198;2023-07-13T09:15:05;100667.00;;;22.82;74.08
11114;BME280;5610;52.154;9.198;2023-07-13T09:18:01;100659.38;;;22.93;74.64
11114;BME280;5610;52.154;9.198;2023-07-13T09:20:51;100647.94;;;23.45;76.75
11114;BME280;5610;52.154;9.198;2023-07-13T09:23:39;100652.59;;;23.99;72.05
11114;BME280;5610;52.154;9.198;2023-07-13T09:26:28;100651.19;;;24.49;69.33
11114;BME280;5610;52.154;9.198;2023-07-13T09:29:24;100651.13;;;24.72;68.63
11114;BME280;5610;52.154;9.198;2023-07-13T09:32:14;100657.56;;;24.18;66.76
11114;BME280;5610;52.154;9.198;2023-07-13T09:35:09;100661.34;;;23.55;69.23
11114;BME280;5610;52.154;9.198;2023-07-13T09:37:58;100654.41;;;24.06;70.20
11114;BME280;5610;52.154;9.198;2023-07-13T09:40:56;100660.13;;;24.57;65.18
11114;BME280;5610;52.154;9.198;2023-07-13T09:44:06;100649.81;;;25.41;66.14
11114;BME280;5610;52.154;9.198;2023-07-13T09:46:54;100647.09;;;25.41;63.86
11114;BME280;5610;52.154;9.198;2023-07-13T09:49:40;100656.34;;;25.11;62.78
11114;BME280;5610;52.154;9.198;2023-07-13T09:52:39;100652.97;;;25.74;62.44
11114;BME280;5610;52.154;9.198;2023-07-13T09:55:27;100641.00;;;26.40;62.03
11114;BME280;5610;52.154;9.198;2023-07-13T09:58:16;100652.22;;;26.02;57.58
11114;BME280;5610;52.154;9.198;2023-07-13T10:01:04;100651.81;;;25.69;58.18
11114;BME280;5610;52.154;9.198;2023-07-13T10:03:53;100664.09;;;26.59;58.67
11114;BME280;5610;52.154;9.198;2023-07-13T10:06:39;100661.00;;;27.37;58.31
11114;BME280;5610;52.154;9.198;2023-07-13T10:09:26;100653.72;;;27.10;55.08
11114;BME280;5610;52.154;9.198;2023-07-13T10:12:14;100646.75;;;27.49;56.89
11114;BME280;5610;52.154;9.198;2023-07-13T10:15:01;100658.56;;;26.80;55.88
11114;BME280;5610;52.154;9.198;2023-07-13T10:17:47;100649.38;;;27.22;53.67
11114;BME280;5610;52.154;9.198;2023-07-13T10:20:33;100650.75;;;27.05;54.59
11114;BME280;5610;52.154;9.198;2023-07-13T10:23:21;100650.03;;;26.96;53.46
11114;BME280;5610;52.154;9.198;2023-07-13T10:26:15;100648.03;;;27.53;55.64
11114;BME280;5610;52.154;9.198;2023-07-13T10:29:04;100652.22;;;28.30;50.90
11114;BME280;5610;52.154;9.198;2023-07-13T10:31:53;100654.06;;;28.89;49.83
11114;BME280;5610;52.154;9.198;2023-07-13T10:34:39;100656.44;;;28.52;49.09
11114;BME280;5610;52.154;9.198;2023-07-13T10:37:26;100672.44;;;26.85;51.94
11114;BME280;5610;52.154;9.198;2023-07-13T10:40:14;100658.38;;;27.16;51.27
11114;BME280;5610;52.154;9.198;2023-07-13T10:43:05;100667.88;;;26.92;53.34
11114;BME280;5610;52.154;9.198;2023-07-13T10:45:52;100658.09;;;27.46;53.32
11114;BME280;5610;52.154;9.198;2023-07-13T10:48:42;100662.97;;;28.71;50.19
11114;BME280;5610;52.154;9.198;2023-07-13T10:51:29;100665.97;;;29.47;47.22
11114;BME280;5610;52.154;9.198;2023-07-13T10:54:20;100669.53;;;28.30;48.69
11114;BME280;5610;52.154;9.198;2023-07-13T10:57:13;100660.75;;;27.74;52.17
11114;BME280;5610;52.154;9.198;2023-07-13T11:00:16;100679.44;;;26.88;51.09
11114;BME280;5610;52.154;9.198;2023-07-13T11:03:02;100680.91;;;26.90;51.54
11114;BME280;5610;52.154;9.198;2023-07-13T11:05:51;100663.50;;;27.80;50.26
11114;BME280;5610;52.154;9.198;2023-07-13T11:08:54;100678.28;;;27.38;50.33
11114;BME280;5610;52.154;9.198;2023-07-13T11:11:40;100682.41;;;26.00;52.95
11114;BME280;5610;52.154;9.198;2023-07-13T11:14:28;100677.72;;;25.43;56.18
11114;BME280;5610;52.154;9.198;2023-07-13T11:17:24;100665.72;;;26.32;53.56
11114;BME280;5610;52.154;9.198;2023-07-13T11:20:23;100664.38;;;29.26;50.12
11114;BME280;5610;52.154;9.198;2023-07-13T11:23:30;100665.69;;;31.62;44.19
11114;BME280;5610;52.154;9.198;2023-07-13T11:26:39;100664.19;;;33.43;40.15
11114;BME280;5610;52.154;9.198;2023-07-13T11:29:27;100657.09;;;34.88;37.04
11114;BME280;5610;52.154;9.198;2023-07-13T11:32:25;100645.38;;;34.31;37.26
11114;BME280;5610;52.154;9.198;2023-07-13T11:35:14;100654.66;;;33.79;37.54
11114;BME280;5610;52.154;9.198;2023-07-13T11:38:02;100645.97;;;34.16;38.59
11114;BME280;5610;52.154;9.198;2023-07-13T11:40:55;100640.28;;;36.04;37.00
11114;BME280;5610;52.154;9.198;2023-07-13T11:43:43;100652.50;;;37.83;33.54
11114;BME280;5610;52.154;9.198;2023-07-13T11:46:28;100641.44;;;38.64;31.66
11114;BME280;5610;52.154;9.198;2023-07-13T11:49:16;100640.94;;;39.42;31.58
11114;BME280;5610;52.154;9.198;2023-07-13T11:52:02;100648.59;;;37.11;33.95
11114;BME280;5610;52.154;9.198;2023-07-13T11:54:49;100648.25;;;34.19;35.83
11114;BME280;5610;52.154;9.198;2023-07-13T11:57:44;100649.69;;;32.66;38.16
11114;BME280;5610;52.154;9.198;2023-07-13T12:00:32;100643.38;;;34.26;36.07
11114;BME280;5610;52.154;9.198;2023-07-13T12:03:20;100645.75;;;34.68;35.76
11114;BME280;5610;52.154;9.198;2023-07-13T12:06:23;100628.94;;;33.91;35.90
11114;BME280;5610;52.154;9.198;2023-07-13T12:09:12;100635.13;;;31.63;39.78
11114;BME280;5610;52.154;9.198;2023-07-13T12:11:59;100634.34;;;30.89;42.07
11114;BME280;5610;52.154;9.198;2023-07-13T12:14:46;100638.34;;;30.19;43.02
11114;BME280;5610;52.154;9.198;2023-07-13T12:17:31;100645.63;;;29.68;44.42
11114;BME280;5610;52.154;9.198;2023-07-13T12:20:21;100641.84;;;29.94;44.56
11114;BME280;5610;52.154;9.198;2023-07-13T12:23:20;100652.38;;;30.60;43.90
11114;BME280;5610;52.154;9.198;2023-07-13T12:26:09;100651.06;;;31.06;43.14
11114;BME280;5610;52.154;9.198;2023-07-13T12:28:58;100650.69;;;30.59;43.65
11114;BME280;5610;52.154;9.198;2023-07-13T12:31:48;100637.78;;;29.72;43.28
11114;BME280;5610;52.154;9.198;2023-07-13T12:34:51;100650.03;;;27.79;44.96
11114;BME280;5610;52.154;9.198;2023-07-13T12:37:37;100654.59;;;27.17;46.69
11114;BME280;5610;52.154;9.198;2023-07-13T12:40:27;100656.50;;;27.64;48.02
11114;BME280;5610;52.154;9.198;2023-07-13T12:43:14;100654.28;;;30.03;47.93
11114;BME280;5610;52.154;9.198;2023-07-13T12:46:02;100655.69;;;33.10;43.81
11114;BME280;5610;52.154;9.198;2023-07-13T12:48:50;100658.69;;;33.20;41.45
11114;BME280;5610;52.154;9.198;2023-07-13T12:51:36;100658.41;;;31.67;41.89
11114;BME280;5610;52.154;9.198;2023-07-13T12:54:22;100662.06;;;30.13;44.68
11114;BME280;5610;52.154;9.198;2023-07-13T12:57:14;100672.66;;;30.66;44.57
11114;BME280;5610;52.154;9.198;2023-07-13T13:00:03;100655.53;;;33.40;40.51
11114;BME280;5610;52.154;9.198;2023-07-13T13:02:50;100654.63;;;36.28;35.59
11114;BME280;5610;52.154;9.198;2023-07-13T13:05:37;100642.28;;;38.14;35.05
11114;BME280;5610;52.154;9.198;2023-07-13T13:08:22;100637.34;;;39.86;32.11
11114;BME280;5610;52.154;9.198;2023-07-13T13:11:07;100634.19;;;40.03;30.64
11114;BME280;5610;52.154;9.198;2023-07-13T13:13:53;100642.53;;;37.24;33.09
11114;BME280;5610;52.154;9.198;2023-07-13T13:16:45;100653.00;;;34.24;34.81
11114;BME280;5610;52.154;9.198;2023-07-13T13:19:32;100653.50;;;31.99;37.24
11114;BME280;5610;52.154;9.198;2023-07-13T13:22:18;100663.94;;;30.19;40.52
11114;BME280;5610;52.154;9.198;2023-07-13T13:25:04;100663.31;;;29.27;43.38
11114;BME280;5610;52.154;9.198;2023-07-13T13:27:50;100678.19;;;28.40;45.00
11114;BME280;5610;52.154;9.198;2023-07-13T13:30:35;100671.13;;;27.85;47.92
11114;BME280;5610;52.154;9.198;2023-07-13T13:33:21;100680.75;;;27.33;51.38
11114;BME280;5610;52.154;9.198;2023-07-13T13:36:11;100691.94;;;27.03;52.97
11114;BME280;5610;52.154;9.198;2023-07-13T13:38:59;100674.34;;;28.22;50.52
11114;BME280;5610;52.154;9.198;2023-07-13T13:41:45;100685.28;;;29.14;48.08
11114;BME280;5610;52.154;9.198;2023-07-13T13:44:31;100679.22;;;28.99;48.53
11114;BME280;5610;52.154;9.198;2023-07-13T13:47:26;100671.22;;;28.58;47.55
11114;BME280;5610;52.154;9.198;2023-07-13T13:50:13;100677.03;;;27.95;49.79
11114;BME280;5610;52.154;9.198;2023-07-13T13:52:59;100686.91;;;27.35;51.08
11114;BME280;5610;52.154;9.198;2023-07-13T13:55:47;100694.78;;;27.58;50.70
11114;BME280;5610;52.154;9.198;2023-07-13T13:58:32;100708.94;;;28.89;49.27
11114;BME280;5610;52.154;9.198;2023-07-13T14:01:20;100721.28;;;30.41;47.74
11114;BME280;5610;52.154;9.198;2023-07-13T14:04:06;100721.06;;;29.59;48.29
11114;BME280;5610;52.154;9.198;2023-07-13T14:06:57;100743.28;;;28.32;50.75
11114;BME280;5610;52.154;9.198;2023-07-13T14:09:42;100766.59;;;27.25;52.79
11114;BME280;5610;52.154;9.198;2023-07-13T14:12:28;100793.84;;;25.61;55.42
11114;BME280;5610;52.154;9.198;2023-07-13T14:15:23;100796.69;;;24.77;61.47
11114;BME280;5610;52.154;9.198;2023-07-13T14:18:09;100792.00;;;24.09;63.99
11114;BME280;5610;52.154;9.198;2023-07-13T14:20:54;100794.22;;;23.74;67.01
11114;BME280;5610;52.154;9.198;2023-07-13T14:23:40;100783.34;;;23.82;66.30
11114;BME280;5610;52.154;9.198;2023-07-13T14:26:26;100790.69;;;24.05;64.77
11114;BME280;5610;52.154;9.198;2023-07-13T14:29:14;100801.31;;;23.92;66.31
11114;BME280;5610;52.154;9.198;2023-07-13T14:32:00;100808.47;;;23.84;66.06
11114;BME280;5610;52.154;9.198;2023-07-13T14:34:46;100811.03;;;23.14;70.46
11114;BME280;5610;52.154;9.198;2023-07-13T14:37:31;100811.53;;;23.10;70.86
11114;BME280;5610;52.154;9.198;2023-07-13T14:40:19;100822.91;;;22.81;75.14